createdAt,value
2022-10-14T00:00:00.799Z,16.27
2022-10-14T00:01:10.373Z,20.55
2022-10-14T00:02:12.508Z,15.85
2022-10-14T00:03:14.486Z,19.80
2022-10-14T00:04:16.673Z,17.27
2022-10-14T00:05:21.412Z,17.52
2022-10-14T00:06:29.691Z,18.67
2022-10-14T00:07:31.708Z,22.30
2022-10-14T00:08:34.083Z,18.35
2022-10-14T00:09:36.688Z,20.65
2022-10-14T00:10:40.392Z,19.52
2022-10-14T00:11:45.772Z,17.92
2022-10-14T00:12:47.869Z,21.83
2022-10-14T00:13:51.179Z,20.30
2022-10-14T00:14:53.325Z,20.63
2022-10-14T00:15:58.076Z,21.55
2022-10-14T00:17:01.283Z,18.23
2022-10-14T00:18:03.516Z,22.48
2022-10-14T00:19:06.574Z,18.50
2022-10-14T00:20:09.102Z,19.55
2022-10-14T00:21:11.353Z,19.77
2022-10-14T00:22:17.922Z,22.17
2022-10-14T00:23:20.467Z,18.20
2022-10-14T00:24:24.020Z,17.98
2022-10-14T00:25:29.142Z,19.48
2022-10-14T00:26:34.915Z,22.98
2022-10-14T00:27:36.930Z,20.00
2022-10-14T00:28:40.124Z,22.85
2022-10-14T00:29:42.404Z,23.15
2022-10-14T00:30:54.674Z,22.80
2022-10-14T00:31:56.892Z,22.73
2022-10-14T00:32:59.945Z,22.85
2022-10-14T00:34:02.173Z,19.88
2022-10-14T00:35:04.776Z,24.63
2022-10-14T00:36:07.881Z,24.08
2022-10-14T00:37:11.568Z,22.23
2022-10-14T00:38:15.189Z,23.83
2022-10-14T00:39:17.663Z,22.00
2022-10-14T00:40:21.799Z,24.15
2022-10-14T00:41:27.783Z,23.10
2022-10-14T00:42:34.709Z,21.35
2022-10-14T00:44:02.877Z,20.75
2022-10-14T00:45:15.748Z,23.70
2022-10-14T00:46:19.547Z,21.65
2022-10-14T00:47:22.940Z,22.90
2022-10-14T00:48:26.840Z,23.10
2022-10-14T00:49:41.087Z,25.00
2022-10-14T00:50:45.864Z,22.30
2022-10-14T00:52:17.507Z,23.08
2022-10-14T00:53:21.582Z,27.60
2022-10-14T00:54:34.397Z,25.00
2022-10-14T00:55:40.541Z,22.80
2022-10-14T00:56:46.050Z,25.85
2022-10-14T00:57:48.532Z,21.30
2022-10-14T00:58:51.758Z,23.20
2022-10-14T01:00:00.153Z,23.95
2022-10-14T01:01:08.114Z,23.52
2022-10-14T01:02:13.762Z,22.52
2022-10-14T01:03:28.276Z,21.73
2022-10-14T01:04:31.233Z,23.48
2022-10-14T01:05:41.606Z,25.45
2022-10-14T01:07:00.411Z,26.35
2022-10-14T01:08:21.206Z,20.20
2022-10-14T01:09:28.348Z,22.55
2022-10-14T01:10:39.161Z,24.70
2022-10-14T01:12:26.852Z,22.77
2022-10-14T01:13:35.136Z,25.33
2022-10-14T01:15:00.626Z,24.38
2022-10-14T01:16:17.843Z,24.55
2022-10-14T01:17:32.502Z,22.42
2022-10-14T01:18:56.396Z,25.05
2022-10-14T01:20:35.534Z,22.02
2022-10-14T01:21:45.743Z,27.90
2022-10-14T01:23:10.413Z,24.35
2022-10-14T01:24:37.423Z,25.38
2022-10-14T01:26:08.301Z,24.55
2022-10-14T01:27:28.876Z,23.20
2022-10-14T01:29:12.949Z,22.67
2022-10-14T01:30:19.834Z,27.00
2022-10-14T01:31:31.063Z,28.98
2022-10-14T01:32:39.366Z,26.98
2022-10-14T01:33:46.681Z,26.77
2022-10-14T01:35:15.073Z,25.95
2022-10-14T01:36:35.289Z,28.70
2022-10-14T01:37:43.562Z,24.95
2022-10-14T01:39:06.764Z,24.98
2022-10-14T01:40:17.744Z,25.13
2022-10-14T01:42:01.152Z,24.08
2022-10-14T01:43:06.082Z,24.73
2022-10-14T01:44:12.275Z,26.08
2022-10-14T01:45:20.741Z,23.65
2022-10-14T01:46:25.798Z,25.05
2022-10-14T01:47:31.384Z,23.23
2022-10-14T01:48:37.218Z,27.23
2022-10-14T01:49:47.684Z,22.77
2022-10-14T01:50:53.117Z,23.30
2022-10-14T01:52:05.957Z,21.83
2022-10-14T01:53:14.602Z,23.58
2022-10-14T01:54:22.998Z,22.60
2022-10-14T01:55:29.936Z,22.77
2022-10-14T01:56:37.048Z,25.35
2022-10-14T01:57:47.357Z,23.40
2022-10-14T01:58:52.211Z,24.42
2022-10-14T01:59:57.068Z,26.30
2022-10-14T02:01:03.833Z,22.63
2022-10-14T02:02:07.134Z,23.05
2022-10-14T02:03:13.332Z,23.70
2022-10-14T02:04:18.225Z,25.08
2022-10-14T02:05:36.699Z,21.77
2022-10-14T02:06:44.528Z,22.17
2022-10-14T02:07:52.352Z,22.50
2022-10-14T02:09:25.318Z,22.73
2022-10-14T02:10:41.987Z,24.85
2022-10-14T02:11:49.812Z,23.30
2022-10-14T02:13:20.661Z,23.35
2022-10-14T02:14:51.808Z,25.48
2022-10-14T02:15:56.390Z,25.75
2022-10-14T02:17:17.691Z,23.10
2022-10-14T02:18:40.630Z,18.85
2022-10-14T02:19:55.175Z,23.95
2022-10-14T02:21:07.262Z,20.67
2022-10-14T02:22:43.598Z,19.70
2022-10-14T02:24:35.244Z,23.40
2022-10-14T02:25:42.128Z,20.00
2022-10-14T02:26:46.664Z,20.42
2022-10-14T02:27:52.389Z,21.17
2022-10-14T02:28:58.329Z,22.05
2022-10-14T02:30:01.840Z,23.33
2022-10-14T02:31:09.223Z,22.65
2022-10-14T02:32:15.760Z,22.70
2022-10-14T02:33:22.734Z,19.45
2022-10-14T02:34:26.257Z,21.40
2022-10-14T02:35:32.908Z,22.40
2022-10-14T02:36:42.921Z,22.60
2022-10-14T02:37:47.980Z,24.13
2022-10-14T02:38:55.462Z,21.77
2022-10-14T02:40:12.317Z,19.52
2022-10-14T02:41:18.524Z,23.95
2022-10-14T02:42:20.849Z,24.10
2022-10-14T02:43:23.801Z,23.60
2022-10-14T02:44:25.849Z,24.80
2022-10-14T02:45:28.130Z,25.38
2022-10-14T02:46:30.455Z,23.10
2022-10-14T02:47:34.033Z,29.70
2022-10-14T02:48:36.535Z,26.08
2022-10-14T02:49:38.585Z,25.95
2022-10-14T02:50:43.460Z,26.52
2022-10-14T02:51:46.500Z,28.30
2022-10-14T02:52:48.600Z,25.20
2022-10-14T02:53:54.233Z,25.67
2022-10-14T02:54:56.714Z,26.77
2022-10-14T02:55:58.717Z,26.25
2022-10-14T02:57:00.908Z,28.58
2022-10-14T02:58:03.979Z,29.20
2022-10-14T02:59:06.160Z,28.10
2022-10-14T03:00:09.034Z,29.27
2022-10-14T03:01:11.456Z,25.08
2022-10-14T03:02:14.270Z,29.33
2022-10-14T03:03:17.276Z,25.48
2022-10-14T03:04:19.522Z,23.48
2022-10-14T03:05:21.550Z,23.48
2022-10-14T03:06:24.164Z,24.67
2022-10-14T03:07:26.453Z,27.17
2022-10-14T03:08:31.052Z,25.08
2022-10-14T03:09:34.972Z,24.80
2022-10-14T03:10:36.995Z,27.10
2022-10-14T03:11:39.321Z,28.60
2022-10-14T03:12:45.291Z,24.52
2022-10-14T03:13:56.019Z,23.58
2022-10-14T03:14:58.074Z,26.13
2022-10-14T03:16:01.723Z,26.15
2022-10-14T03:17:04.829Z,27.98
2022-10-14T03:18:08.918Z,28.40
2022-10-14T03:19:23.641Z,26.15
2022-10-14T03:20:28.835Z,22.98
2022-10-14T03:21:33.302Z,26.15
2022-10-14T03:22:38.437Z,23.77
2022-10-14T03:23:41.973Z,26.58
2022-10-14T03:24:45.235Z,27.38
2022-10-14T03:25:59.370Z,29.88
2022-10-14T03:27:09.615Z,27.17
2022-10-14T03:28:12.712Z,31.40
2022-10-14T03:29:26.868Z,30.25
2022-10-14T03:30:35.693Z,25.30
2022-10-14T03:31:45.189Z,27.60
2022-10-14T03:33:03.184Z,28.52
2022-10-14T03:34:27.492Z,27.92
2022-10-14T03:35:39.213Z,30.13
2022-10-14T03:36:46.513Z,24.05
2022-10-14T03:37:50.193Z,27.40
2022-10-14T03:38:55.998Z,30.48
2022-10-14T03:40:17.069Z,26.50
2022-10-14T03:41:19.327Z,23.02
2022-10-14T03:42:30.383Z,22.85
2022-10-14T03:43:32.470Z,25.00
2022-10-14T03:44:35.552Z,25.33
2022-10-14T03:46:01.518Z,24.15
2022-10-14T03:47:05.666Z,23.45
2022-10-14T03:48:09.710Z,23.88
2022-10-14T03:49:15.051Z,28.08
2022-10-14T03:50:17.087Z,25.08
2022-10-14T03:51:24.118Z,25.10
2022-10-14T03:52:28.076Z,26.83
2022-10-14T03:53:57.663Z,27.10
2022-10-14T03:55:03.967Z,24.70
2022-10-14T03:56:06.964Z,25.90
2022-10-14T03:57:11.112Z,24.70
2022-10-14T03:58:20.794Z,27.33
2022-10-14T03:59:27.554Z,29.20
2022-10-14T04:00:32.736Z,29.00
2022-10-14T04:01:53.311Z,27.92
2022-10-14T04:03:01.852Z,29.63
2022-10-14T04:04:12.850Z,29.63
2022-10-14T04:05:15.122Z,26.02
2022-10-14T04:06:19.510Z,27.73
2022-10-14T04:07:21.739Z,26.92
2022-10-14T04:08:29.397Z,29.77
2022-10-14T04:09:43.639Z,25.75
2022-10-14T04:10:51.528Z,28.88
2022-10-14T04:11:53.707Z,27.55
2022-10-14T04:13:28.033Z,30.13
2022-10-14T04:14:30.193Z,27.40
2022-10-14T04:15:35.956Z,27.77
2022-10-14T04:17:12.397Z,27.10
2022-10-14T04:18:14.550Z,30.85
2022-10-14T04:19:18.656Z,31.83
2022-10-14T04:20:21.297Z,28.85
2022-10-14T04:21:28.997Z,28.23
2022-10-14T04:22:33.486Z,30.27
2022-10-14T04:23:38.445Z,28.30
2022-10-14T04:24:51.391Z,32.58
2022-10-14T04:25:53.492Z,30.30
2022-10-14T04:26:56.475Z,29.52
2022-10-14T04:28:08.310Z,35.10
2022-10-14T04:29:28.353Z,32.97
2022-10-14T04:30:37.233Z,35.05
2022-10-14T04:31:40.787Z,31.75
2022-10-14T04:32:43.364Z,32.75
2022-10-14T04:33:46.137Z,30.77
2022-10-14T04:34:55.178Z,35.35
2022-10-14T04:36:02.164Z,32.25
2022-10-14T04:38:44.012Z,32.25
2022-10-14T04:39:47.497Z,32.63
2022-10-14T04:40:49.711Z,31.70
2022-10-14T04:41:51.985Z,32.47
2022-10-14T04:42:57.480Z,29.23
2022-10-14T04:44:08.323Z,30.85
2022-10-14T04:45:18.126Z,28.60
2022-10-14T04:46:26.623Z,30.17
2022-10-14T04:47:29.544Z,30.17
2022-10-14T04:48:36.123Z,27.98
2022-10-14T04:49:40.139Z,29.02
2022-10-14T04:50:52.665Z,28.45
2022-10-14T04:52:17.655Z,27.77
2022-10-14T04:53:46.072Z,24.67
2022-10-14T04:55:06.640Z,22.42
2022-10-14T04:56:13.061Z,22.58
2022-10-14T04:57:25.037Z,25.92
2022-10-14T04:58:27.099Z,22.70
2022-10-14T04:59:31.182Z,21.27
2022-10-14T05:01:05.592Z,24.48
2022-10-14T05:02:12.260Z,20.98
2022-10-14T05:03:20.979Z,29.73
2022-10-14T05:04:24.100Z,23.33
2022-10-14T05:05:27.089Z,26.15
2022-10-14T05:06:32.128Z,22.75
2022-10-14T05:07:36.396Z,21.88
2022-10-14T05:08:55.958Z,29.05
2022-10-14T05:09:58.314Z,22.75
2022-10-14T05:11:10.339Z,21.90
2022-10-14T05:12:20.062Z,26.45
2022-10-14T05:13:28.891Z,29.42
2022-10-14T05:14:37.241Z,26.40
2022-10-14T05:15:50.629Z,24.70
2022-10-14T05:16:57.175Z,27.13
2022-10-14T05:18:04.685Z,22.10
2022-10-14T05:19:25.146Z,26.90
2022-10-14T05:20:28.700Z,27.88
2022-10-14T05:21:33.047Z,30.95
2022-10-14T05:22:48.268Z,22.55
2022-10-14T05:23:50.527Z,23.40
2022-10-14T05:24:52.893Z,26.85
2022-10-14T05:25:55.640Z,25.73
2022-10-14T05:26:59.368Z,26.23
2022-10-14T05:28:03.870Z,26.55
2022-10-14T05:29:05.988Z,30.08
2022-10-14T05:30:08.686Z,22.05
2022-10-14T05:31:16.117Z,29.13
2022-10-14T05:32:27.197Z,23.30
2022-10-14T05:33:36.639Z,24.98
2022-10-14T05:34:39.722Z,29.55
2022-10-14T05:35:58.479Z,28.58
2022-10-14T05:37:03.892Z,24.65
2022-10-14T05:38:14.015Z,28.63
2022-10-14T05:39:18.667Z,22.67
2022-10-14T05:40:21.015Z,25.25
2022-10-14T05:41:23.620Z,21.77
2022-10-14T05:42:27.902Z,25.85
2022-10-14T05:43:33.155Z,29.98
2022-10-14T05:44:37.811Z,27.00
2022-10-14T05:45:40.072Z,24.63
2022-10-14T05:46:45.125Z,25.77
2022-10-14T05:47:50.691Z,25.05
2022-10-14T05:48:56.759Z,26.55
2022-10-14T05:49:59.641Z,31.35
2022-10-14T05:51:03.843Z,26.05
2022-10-14T05:52:09.788Z,31.88
2022-10-14T05:53:12.626Z,34.42
2022-10-14T05:54:23.035Z,31.13
2022-10-14T05:55:43.112Z,24.60
2022-10-14T05:56:51.562Z,35.70
2022-10-14T05:58:02.064Z,28.15
2022-10-14T05:59:11.231Z,30.03
2022-10-14T06:00:21.836Z,29.92
2022-10-14T06:01:35.061Z,35.70
2022-10-14T06:02:39.094Z,27.75
2022-10-14T06:03:41.814Z,28.73
2022-10-14T06:04:44.967Z,27.33
2022-10-14T06:05:48.956Z,26.25
2022-10-14T06:06:51.831Z,30.23
2022-10-14T06:07:54.076Z,26.05
2022-10-14T06:08:57.358Z,26.23
2022-10-14T06:10:00.694Z,28.92
2022-10-14T06:11:03.732Z,29.08
2022-10-14T06:12:08.395Z,23.33
2022-10-14T06:13:11.618Z,24.48
2022-10-14T06:14:15.590Z,22.08
2022-10-14T06:15:20.883Z,23.83
2022-10-14T06:16:25.498Z,27.85
2022-10-14T06:17:29.482Z,29.83
2022-10-14T06:18:32.243Z,24.92
2022-10-14T06:19:36.184Z,24.23
2022-10-14T06:20:39.215Z,20.75
2022-10-14T06:21:44.443Z,26.13
2022-10-14T06:22:46.727Z,32.40
2022-10-14T06:23:53.292Z,19.67
2022-10-14T06:24:58.337Z,22.80
2022-10-14T06:26:07.746Z,20.30
2022-10-14T06:27:10.902Z,21.50
2022-10-14T06:28:14.970Z,18.40
2022-10-14T06:29:31.736Z,21.08
2022-10-14T06:30:35.240Z,20.50
2022-10-14T06:31:40.847Z,22.73
2022-10-14T06:32:49.077Z,25.15
2022-10-14T06:33:56.405Z,20.98
2022-10-14T06:35:02.017Z,21.67
2022-10-14T06:36:07.285Z,19.45
2022-10-14T06:37:12.069Z,19.80
2022-10-14T06:38:16.049Z,21.00
2022-10-14T06:39:20.992Z,17.73
2022-10-14T06:40:24.296Z,14.75
2022-10-14T06:41:28.959Z,18.48
2022-10-14T06:42:32.484Z,18.25
2022-10-14T06:43:35.711Z,20.02
2022-10-14T06:44:39.162Z,17.05
2022-10-14T06:45:41.797Z,19.40
2022-10-14T06:46:44.296Z,19.48
2022-10-14T06:47:48.036Z,20.55
2022-10-14T06:48:50.812Z,17.90
2022-10-14T06:49:53.924Z,17.45
2022-10-14T06:51:00.076Z,18.13
2022-10-14T06:52:04.418Z,19.50
2022-10-14T06:53:06.791Z,16.85
2022-10-14T06:54:09.456Z,16.50
2022-10-14T06:55:11.727Z,15.70
2022-10-14T06:56:14.166Z,18.85
2022-10-14T06:57:17.063Z,14.77
2022-10-14T06:58:19.403Z,17.80
2022-10-14T06:59:21.537Z,13.38
2022-10-14T07:00:23.698Z,12.40
2022-10-14T07:01:26.125Z,12.98
2022-10-14T07:02:28.473Z,18.55
2022-10-14T07:03:30.887Z,12.70
2022-10-14T07:04:33.154Z,13.90
2022-10-14T07:05:36.589Z,11.25
2022-10-14T07:06:38.776Z,14.40
2022-10-14T07:07:40.973Z,11.02
2022-10-14T07:08:43.363Z,13.98
2022-10-14T07:09:45.449Z,14.65
2022-10-14T07:10:48.411Z,10.07
2022-10-14T07:11:51.305Z,11.95
2022-10-14T07:12:55.242Z,8.77
2022-10-14T07:13:58.127Z,11.05
2022-10-14T07:15:00.474Z,10.27
2022-10-14T07:16:03.585Z,11.68
2022-10-14T07:17:08.388Z,15.45
2022-10-14T07:18:10.433Z,12.68
2022-10-14T07:19:12.950Z,12.02
2022-10-14T07:20:15.274Z,14.15
2022-10-14T07:21:17.515Z,9.68
2022-10-14T07:22:20.128Z,12.13
2022-10-14T07:23:22.721Z,10.30
2022-10-14T07:24:24.770Z,9.82
2022-10-14T07:25:27.026Z,12.73
2022-10-14T07:26:32.670Z,9.35
2022-10-14T07:27:34.960Z,10.85
2022-10-14T07:28:37.517Z,10.00
2022-10-14T07:29:39.651Z,9.20
2022-10-14T07:30:41.676Z,15.20
2022-10-14T07:31:43.778Z,13.63
2022-10-14T07:32:46.169Z,12.45
2022-10-14T07:33:49.634Z,15.15
2022-10-14T07:34:52.169Z,14.07
2022-10-14T07:35:54.300Z,17.80
2022-10-14T07:36:56.364Z,11.55
2022-10-14T07:38:00.440Z,11.23
2022-10-14T07:39:05.914Z,9.13
2022-10-14T07:40:08.933Z,11.95
2022-10-14T07:41:19.462Z,9.20
2022-10-14T07:42:21.804Z,9.00
2022-10-14T07:43:24.451Z,9.00
2022-10-14T07:44:27.461Z,12.50
2022-10-14T07:45:35.348Z,13.65
2022-10-14T07:46:40.564Z,11.30
2022-10-14T07:47:44.838Z,11.10
2022-10-14T07:48:56.531Z,11.48
2022-10-14T07:50:00.336Z,12.57
2022-10-14T07:51:04.032Z,12.13
2022-10-14T07:52:06.558Z,17.83
2022-10-14T07:53:08.824Z,11.60
2022-10-14T07:54:16.992Z,11.77
2022-10-14T07:55:20.512Z,11.15
2022-10-14T07:56:23.589Z,10.23
2022-10-14T07:57:27.832Z,9.68
2022-10-14T07:58:31.904Z,11.32
2022-10-14T07:59:34.109Z,12.15
2022-10-14T08:00:37.568Z,11.65
2022-10-14T08:01:39.906Z,11.77
2022-10-14T08:02:43.299Z,13.48
2022-10-14T08:03:47.411Z,15.45
2022-10-14T08:04:56.456Z,12.73
2022-10-14T08:06:06.933Z,12.77
2022-10-14T08:07:08.876Z,12.30
2022-10-14T08:08:12.173Z,11.10
2022-10-14T08:09:14.541Z,12.88
2022-10-14T08:10:17.964Z,11.15
2022-10-14T08:11:27.173Z,11.63
2022-10-14T08:12:29.360Z,10.82
2022-10-14T08:13:32.194Z,12.00
2022-10-14T08:14:34.410Z,14.40
2022-10-14T08:15:41.573Z,10.85
2022-10-14T08:16:44.367Z,10.98
2022-10-14T08:17:46.562Z,14.05
2022-10-14T08:18:49.191Z,16.48
2022-10-14T08:19:52.898Z,13.57
2022-10-14T08:20:55.149Z,11.45
2022-10-14T08:21:57.217Z,6.88
2022-10-14T08:22:59.760Z,12.77
2022-10-14T08:24:01.832Z,10.25
2022-10-14T08:25:04.457Z,13.23
2022-10-14T08:26:21.903Z,10.77
2022-10-14T08:27:26.799Z,9.82
2022-10-14T08:28:28.996Z,9.68
2022-10-14T08:29:31.157Z,9.02
2022-10-14T08:30:41.901Z,8.80
2022-10-14T08:31:44.651Z,10.40
2022-10-14T08:32:47.253Z,12.82
2022-10-14T08:33:50.029Z,10.90
2022-10-14T08:34:52.232Z,9.13
2022-10-14T08:35:54.721Z,7.78
2022-10-14T08:36:58.102Z,8.13
2022-10-14T08:38:02.003Z,12.05
2022-10-14T08:39:05.839Z,7.90
2022-10-14T08:40:08.840Z,10.52
2022-10-14T08:41:14.118Z,11.85
2022-10-14T08:42:19.619Z,10.57
2022-10-14T08:43:32.105Z,10.45
2022-10-14T08:44:45.966Z,8.82
2022-10-14T08:45:54.717Z,10.85
2022-10-14T08:47:01.716Z,15.00
2022-10-14T08:48:18.655Z,7.30
2022-10-14T08:49:46.335Z,8.85
2022-10-14T08:50:55.020Z,9.43
2022-10-14T08:52:11.142Z,6.90
2022-10-14T08:53:21.856Z,7.20
2022-10-14T08:54:38.908Z,10.00
2022-10-14T08:55:51.135Z,11.27
2022-10-14T08:56:54.899Z,7.65
2022-10-14T08:58:03.235Z,8.65
2022-10-14T08:59:13.999Z,9.50
2022-10-14T09:01:34.794Z,8.38
2022-10-14T09:02:44.538Z,8.20
2022-10-14T09:03:46.785Z,9.30
2022-10-14T09:04:49.114Z,8.38
2022-10-14T09:05:58.222Z,10.27
2022-10-14T09:07:00.910Z,10.07
2022-10-14T09:08:03.371Z,16.00
2022-10-14T09:09:29.993Z,8.48
2022-10-14T09:10:36.924Z,10.23
2022-10-14T09:11:43.040Z,9.90
2022-10-14T09:12:45.776Z,10.57
2022-10-14T09:13:56.227Z,11.23
2022-10-14T09:15:27.677Z,9.05
2022-10-14T09:16:37.556Z,11.60
2022-10-14T09:17:50.543Z,10.68
2022-10-14T09:18:55.242Z,12.40
2022-10-14T09:20:16.747Z,10.27
2022-10-14T09:21:40.496Z,11.90
2022-10-14T09:22:57.489Z,10.52
2022-10-14T09:24:07.634Z,10.95
2022-10-14T09:25:16.986Z,9.93
2022-10-14T09:26:20.648Z,10.50
2022-10-14T09:27:24.241Z,11.57
2022-10-14T09:28:39.010Z,8.05
2022-10-14T09:30:01.785Z,11.35
2022-10-14T09:31:10.131Z,11.85
2022-10-14T09:32:21.051Z,10.98
2022-10-14T09:33:27.256Z,12.63
2022-10-14T09:34:35.033Z,8.15
2022-10-14T09:35:42.533Z,8.38
2022-10-14T09:36:47.400Z,13.88
2022-10-14T09:37:50.203Z,10.57
2022-10-14T09:38:55.877Z,9.00
2022-10-14T09:40:17.602Z,10.05
2022-10-14T09:41:31.242Z,10.02
2022-10-14T09:42:48.952Z,9.55
2022-10-14T09:44:14.512Z,12.15
2022-10-14T09:45:20.032Z,11.18
2022-10-14T09:46:27.224Z,10.27
2022-10-14T09:47:30.097Z,7.28
2022-10-14T09:48:38.632Z,10.13
2022-10-14T09:49:46.548Z,9.63
2022-10-14T09:50:52.188Z,9.00
2022-10-14T09:51:57.012Z,11.07
2022-10-14T09:53:22.678Z,12.45
2022-10-14T09:54:29.660Z,12.73
2022-10-14T09:55:33.166Z,11.48
2022-10-14T09:56:41.746Z,10.02
2022-10-14T09:57:44.877Z,9.85
2022-10-14T09:58:55.410Z,14.45
2022-10-14T10:00:01.238Z,12.50
2022-10-14T10:01:04.383Z,15.43
2022-10-14T10:02:23.511Z,12.18
2022-10-14T10:03:29.225Z,13.18
2022-10-14T10:04:48.009Z,9.57
2022-10-14T10:06:00.026Z,9.13
2022-10-14T10:07:08.318Z,8.85
2022-10-14T10:08:22.250Z,9.50
2022-10-14T10:09:24.955Z,13.07
2022-10-14T10:10:31.187Z,9.13
2022-10-14T10:11:38.188Z,11.48
2022-10-14T10:12:46.565Z,12.93
2022-10-14T10:13:48.612Z,10.68
2022-10-14T10:15:00.210Z,10.32
2022-10-14T10:16:06.159Z,12.95
2022-10-14T10:17:09.313Z,10.57
2022-10-14T10:18:29.442Z,9.23
2022-10-14T10:19:35.074Z,11.98
2022-10-14T10:20:37.854Z,10.05
2022-10-14T10:21:44.693Z,13.07
2022-10-14T10:22:48.350Z,8.25
2022-10-14T10:23:59.871Z,10.38
2022-10-14T10:25:02.155Z,8.45
2022-10-14T10:26:27.434Z,9.85
2022-10-14T10:27:36.918Z,11.18
2022-10-14T10:28:46.298Z,12.15
2022-10-14T10:31:08.037Z,11.00
2022-10-14T10:32:16.850Z,17.23
2022-10-14T10:34:54.751Z,12.18
2022-10-14T10:37:29.939Z,13.32
2022-10-14T10:38:39.622Z,12.70
2022-10-14T10:39:41.706Z,8.93
2022-10-14T10:41:28.038Z,8.73
2022-10-14T10:42:40.100Z,12.85
2022-10-14T10:43:50.867Z,11.85
2022-10-14T10:45:23.452Z,9.43
2022-10-14T10:46:40.874Z,10.32
2022-10-14T10:47:46.914Z,9.02
2022-10-14T10:49:15.352Z,12.13
2022-10-14T10:50:34.038Z,11.27
2022-10-14T10:51:39.048Z,9.07
2022-10-14T10:53:25.007Z,11.30
2022-10-14T10:54:49.006Z,13.70
2022-10-14T10:56:18.583Z,10.38
2022-10-14T10:57:36.812Z,7.20
2022-10-14T10:58:50.969Z,7.55
2022-10-14T11:00:06.422Z,9.13
2022-10-14T11:01:34.407Z,10.63
2022-10-14T11:02:48.827Z,8.63
2022-10-14T11:04:27.069Z,10.43
2022-10-14T11:05:29.119Z,10.07
2022-10-14T11:07:30.920Z,10.00
2022-10-14T11:10:25.300Z,14.05
2022-10-14T11:12:03.635Z,10.27
2022-10-14T11:13:30.741Z,6.05
2022-10-14T11:15:07.250Z,6.93
2022-10-14T11:16:24.209Z,7.65
2022-10-14T11:18:07.026Z,9.75
2022-10-14T11:19:35.166Z,7.95
2022-10-14T11:20:56.324Z,13.27
2022-10-14T11:22:28.993Z,11.95
2022-10-14T11:23:50.203Z,11.02
2022-10-14T11:25:18.629Z,7.25
2022-10-14T11:26:47.716Z,10.65
2022-10-14T11:28:09.494Z,10.30
2022-10-14T11:29:23.459Z,7.43
2022-10-14T11:30:39.510Z,8.77
2022-10-14T11:31:55.200Z,13.05
2022-10-14T11:32:58.393Z,9.13
2022-10-14T11:34:12.771Z,9.38
2022-10-14T11:35:17.264Z,7.18
2022-10-14T11:36:25.268Z,7.25
2022-10-14T11:37:34.168Z,9.20
2022-10-14T11:38:52.324Z,6.85
2022-10-14T11:40:42.805Z,8.82
2022-10-14T11:42:25.300Z,9.90
2022-10-14T11:43:57.684Z,10.35
2022-10-14T11:45:34.921Z,7.15
2022-10-14T11:46:40.830Z,7.55
2022-10-14T11:47:47.898Z,11.65
2022-10-14T11:49:00.348Z,8.82
2022-10-14T11:50:17.660Z,7.40
2022-10-14T11:51:36.081Z,10.30
2022-10-14T11:52:46.066Z,10.05
2022-10-14T11:54:03.419Z,10.15
2022-10-14T11:55:14.769Z,13.70
2022-10-14T11:56:40.343Z,12.07
2022-10-14T11:57:50.872Z,11.52
2022-10-14T11:59:15.596Z,13.45
2022-10-14T12:00:57.661Z,7.85
2022-10-14T12:02:37.602Z,10.25
2022-10-14T12:03:59.109Z,15.02
2022-10-14T12:05:14.551Z,12.02
2022-10-14T12:06:26.225Z,19.77
2022-10-14T12:07:39.714Z,13.43
2022-10-14T12:09:07.448Z,8.85
2022-10-14T12:10:20.866Z,12.05
2022-10-14T12:11:38.494Z,8.20
2022-10-14T12:12:44.264Z,13.98
2022-10-14T12:13:52.598Z,11.10
2022-10-14T12:14:55.588Z,12.30
2022-10-14T12:16:01.166Z,14.93
2022-10-14T12:17:18.391Z,14.27
2022-10-14T12:18:22.499Z,14.02
2022-10-14T12:19:30.017Z,11.75
2022-10-14T12:20:59.093Z,14.15
2022-10-14T12:22:11.060Z,10.38
2022-10-14T12:23:29.566Z,11.18
2022-10-14T12:24:42.348Z,10.38
2022-10-14T12:25:58.785Z,10.48
2022-10-14T12:27:04.935Z,11.57
2022-10-14T12:28:09.186Z,11.65
2022-10-14T12:29:18.703Z,9.50
2022-10-14T12:30:39.914Z,10.77
2022-10-14T12:31:48.379Z,9.38
2022-10-14T12:33:07.575Z,13.70
2022-10-14T12:34:15.895Z,12.15
2022-10-14T12:35:51.190Z,8.52
2022-10-14T12:36:54.860Z,7.05
2022-10-14T12:38:04.093Z,14.82
2022-10-14T12:39:19.018Z,7.72
2022-10-14T12:40:26.791Z,10.02
2022-10-14T12:41:39.905Z,9.15
2022-10-14T12:42:44.630Z,9.02
2022-10-14T12:44:01.919Z,8.45
2022-10-14T12:45:16.866Z,12.20
2022-10-14T12:46:19.181Z,14.38
2022-10-14T12:47:41.604Z,14.73
2022-10-14T12:48:51.950Z,14.65
2022-10-14T12:50:04.826Z,10.48
2022-10-14T12:51:34.763Z,9.60
2022-10-14T12:52:39.065Z,9.65
2022-10-14T12:54:05.094Z,9.77
2022-10-14T12:55:22.926Z,11.98
2022-10-14T12:56:36.812Z,9.73
2022-10-14T12:57:42.194Z,12.77
2022-10-14T12:59:02.131Z,8.75
2022-10-14T13:00:28.969Z,13.32
2022-10-14T13:01:35.475Z,14.65
2022-10-14T13:02:45.817Z,9.80
2022-10-14T13:03:54.721Z,13.35
2022-10-14T13:04:57.166Z,12.38
2022-10-14T13:06:30.677Z,9.65
2022-10-14T13:07:41.578Z,11.88
2022-10-14T13:09:14.484Z,12.05
2022-10-14T13:10:38.453Z,15.07
2022-10-14T13:12:06.523Z,18.80
2022-10-14T13:13:45.213Z,17.52
2022-10-14T13:15:04.443Z,14.57
2022-10-14T13:16:10.485Z,16.80
2022-10-14T13:17:45.790Z,15.57
2022-10-14T13:19:05.606Z,16.55
2022-10-14T13:20:36.250Z,16.98
2022-10-14T13:21:53.529Z,14.57
2022-10-14T13:23:15.643Z,21.35
2022-10-14T13:24:29.220Z,23.02
2022-10-14T13:25:40.147Z,22.38
2022-10-14T13:26:56.167Z,24.38
2022-10-14T13:28:17.043Z,16.38
2022-10-14T13:29:36.309Z,15.93
2022-10-14T13:31:01.664Z,18.75
2022-10-14T13:32:33.702Z,15.50
2022-10-14T13:33:50.823Z,20.13
2022-10-14T13:35:36.026Z,19.08
2022-10-14T13:36:57.834Z,17.50
2022-10-14T13:38:13.234Z,23.63
2022-10-14T13:39:17.110Z,21.20
2022-10-14T13:40:36.107Z,22.20
2022-10-14T13:41:41.369Z,19.02
2022-10-14T13:42:49.299Z,15.35
2022-10-14T13:43:56.981Z,22.48
2022-10-14T13:45:07.156Z,23.08
2022-10-14T13:46:22.892Z,21.92
2022-10-14T13:47:26.590Z,21.65
2022-10-14T13:48:38.541Z,21.10
2022-10-14T13:49:42.092Z,16.27
2022-10-14T13:50:51.307Z,19.88
2022-10-14T13:52:00.581Z,18.35
2022-10-14T13:53:14.299Z,14.98
2022-10-14T13:54:26.019Z,17.92
2022-10-14T13:55:29.875Z,18.17
2022-10-14T13:56:32.967Z,17.50
2022-10-14T13:58:00.028Z,16.98
2022-10-14T13:58:59.055Z,20.95
2022-10-14T14:01:34.321Z,22.73
2022-10-14T14:02:38.986Z,21.13
2022-10-14T14:03:45.437Z,26.42
2022-10-14T14:04:55.414Z,25.65
2022-10-14T14:06:00.221Z,29.17
2022-10-14T14:07:33.202Z,26.77
2022-10-14T14:08:40.507Z,26.45
2022-10-14T14:09:51.715Z,21.55
2022-10-14T14:11:18.065Z,22.48
2022-10-14T14:12:22.797Z,21.10
2022-10-14T14:13:26.786Z,22.23
2022-10-14T14:14:37.597Z,22.80
2022-10-14T14:15:40.686Z,23.83
2022-10-14T14:17:00.518Z,19.40
2022-10-14T14:18:04.528Z,23.88
2022-10-14T14:19:17.898Z,33.80
2022-10-14T14:20:33.298Z,22.02
2022-10-14T14:21:36.051Z,28.60
2022-10-14T14:22:44.384Z,28.92
2022-10-14T14:23:59.995Z,27.42
2022-10-14T14:25:55.605Z,25.77
2022-10-14T14:26:49.472Z,18.88
2022-10-14T14:27:57.361Z,19.13
2022-10-14T14:29:00.948Z,20.90
2022-10-14T14:30:08.589Z,31.52
2022-10-14T14:31:16.989Z,21.60
2022-10-14T14:32:23.705Z,22.45
2022-10-14T14:33:32.539Z,27.70
2022-10-14T14:34:38.822Z,29.33
2022-10-14T14:35:54.501Z,29.50
2022-10-14T14:37:16.587Z,18.45
2022-10-14T14:38:56.786Z,18.45
2022-10-14T14:40:15.317Z,18.77
2022-10-14T14:41:23.666Z,25.00
2022-10-14T14:42:32.114Z,47.13
2022-10-14T14:43:40.847Z,24.10
2022-10-14T14:44:50.351Z,28.38
2022-10-14T14:45:53.612Z,21.30
2022-10-14T14:47:02.405Z,26.85
2022-10-14T14:48:07.367Z,18.67
2022-10-14T14:49:17.654Z,21.58
2022-10-14T14:50:31.611Z,25.73
2022-10-14T14:51:38.262Z,19.40
2022-10-14T14:52:41.866Z,18.52
2022-10-14T14:53:52.512Z,20.92
2022-10-14T14:54:57.143Z,20.42
2022-10-14T14:56:11.871Z,19.58
2022-10-14T14:57:22.145Z,22.83
2022-10-14T14:58:30.031Z,24.63
2022-10-14T14:59:40.933Z,20.90
2022-10-14T15:00:46.368Z,21.85
2022-10-14T15:01:49.811Z,23.73
2022-10-14T15:03:00.220Z,23.95
2022-10-14T15:04:12.126Z,42.88
2022-10-14T15:05:20.569Z,28.80
2022-10-14T15:06:25.361Z,24.02
2022-10-14T15:07:28.097Z,22.30
2022-10-14T15:08:35.672Z,40.92
2022-10-14T15:09:57.445Z,22.85
2022-10-14T15:11:01.443Z,21.60
2022-10-14T15:12:12.702Z,28.08
2022-10-14T15:13:28.022Z,25.60